Aviation Digital Data Service (ADDS)

Output produced by TAFs form (1611 UTC 19 October 2017)
found at http://www.aviationweather.gov/adds/tafs/
 
KALB 191123Z 1912/2012 17008KT P6SM FEW250 
     FM191500 18015G22KT P6SM SKC 
     FM200100 20008KT P6SM SCT060 BKN250 
     FM200500 27006KT P6SM SCT250